createdAt,value
2022-09-22T00:01:22.380Z,5.90
2022-09-22T00:03:52.967Z,6.97
2022-09-22T00:06:22.980Z,5.83
2022-09-22T00:08:52.535Z,6.70
2022-09-22T00:11:24.175Z,6.80
2022-09-22T00:13:54.497Z,6.70
2022-09-22T00:16:24.711Z,6.90
2022-09-22T00:18:52.867Z,5.23
2022-09-22T00:21:23.377Z,6.93
2022-09-22T00:23:51.541Z,5.27
2022-09-22T00:26:23.217Z,5.93
2022-09-22T00:28:53.259Z,7.23
2022-09-22T00:31:23.172Z,6.70
2022-09-22T00:33:51.937Z,5.17
2022-09-22T00:36:21.732Z,4.87
2022-09-22T00:38:51.512Z,6.60
2022-09-22T00:41:23.350Z,5.37
2022-09-22T00:44:41.239Z,4.77
2022-09-22T00:47:17.531Z,4.87
2022-09-22T00:49:49.751Z,5.53
2022-09-22T00:52:21.682Z,4.67
2022-09-22T00:54:50.202Z,5.60
2022-09-22T00:57:22.461Z,5.00
2022-09-22T00:59:51.891Z,5.57
2022-09-22T01:02:21.260Z,5.43
2022-09-22T01:04:51.814Z,4.83
2022-09-22T01:07:20.581Z,4.93
2022-09-22T01:09:48.841Z,4.90
2022-09-22T01:12:18.252Z,5.03
2022-09-22T01:15:00.118Z,5.10
2022-09-22T01:17:36.491Z,6.00
2022-09-22T01:20:42.666Z,4.53
2022-09-22T01:23:29.095Z,5.37
2022-09-22T01:26:17.351Z,5.03
2022-09-22T01:29:16.168Z,4.63
2022-09-22T01:31:53.161Z,5.43
2022-09-22T01:34:25.692Z,6.00
2022-09-22T01:36:57.731Z,5.30
2022-09-22T01:39:30.054Z,4.97
2022-09-22T01:42:01.880Z,5.73
2022-09-22T01:44:34.201Z,4.87
2022-09-22T01:47:07.422Z,7.27
2022-09-22T01:49:37.581Z,6.57
2022-09-22T01:52:11.341Z,6.30
2022-09-22T01:54:41.672Z,4.97
2022-09-22T01:57:15.324Z,5.93
2022-09-22T01:59:45.751Z,6.03
2022-09-22T02:02:19.132Z,8.17
2022-09-22T02:04:51.105Z,5.20
2022-09-22T02:07:24.623Z,6.80
2022-09-22T02:09:52.901Z,4.80
2022-09-22T02:12:21.119Z,8.77
2022-09-22T02:14:49.361Z,6.27
2022-09-22T02:17:19.383Z,5.17
2022-09-22T02:19:47.581Z,7.97
2022-09-22T02:22:15.919Z,7.07
2022-09-22T02:24:45.559Z,6.23
2022-09-22T02:27:15.102Z,5.67
2022-09-22T02:29:46.820Z,5.33
2022-09-22T02:32:18.601Z,4.90
2022-09-22T02:34:47.381Z,6.63
2022-09-22T02:37:22.685Z,4.90
2022-09-22T02:39:59.596Z,5.53
2022-09-22T02:42:30.159Z,7.87
2022-09-22T02:45:03.061Z,6.27
2022-09-22T02:47:37.043Z,5.67
2022-09-22T02:50:08.581Z,4.63
2022-09-22T02:52:37.865Z,6.20
2022-09-22T02:55:09.023Z,6.50
2022-09-22T02:57:37.485Z,4.70
2022-09-22T03:00:07.063Z,5.30
2022-09-22T03:02:36.571Z,4.53
2022-09-22T03:05:05.217Z,5.73
2022-09-22T03:07:33.764Z,4.87
2022-09-22T03:10:01.961Z,4.43
2022-09-22T03:12:30.151Z,4.50
2022-09-22T03:14:58.273Z,4.80
2022-09-22T03:17:26.373Z,4.97
2022-09-22T03:19:55.916Z,5.53
2022-09-22T03:22:23.991Z,5.73
2022-09-22T03:24:52.082Z,4.57
2022-09-22T03:27:20.201Z,5.40
2022-09-22T03:29:48.421Z,5.80
2022-09-22T03:32:16.527Z,6.30
2022-09-22T03:34:44.641Z,5.27
2022-09-22T03:37:14.116Z,5.30
2022-09-22T03:39:42.222Z,5.63
2022-09-22T03:42:10.700Z,5.60
2022-09-22T03:44:39.050Z,6.60
2022-09-22T03:47:07.121Z,4.63
2022-09-22T03:49:35.127Z,5.43
2022-09-22T03:52:03.462Z,4.23
2022-09-22T03:54:32.807Z,5.10
2022-09-22T03:57:00.787Z,5.03
2022-09-22T03:59:28.736Z,4.93
2022-09-22T04:01:58.372Z,5.13
2022-09-22T04:04:26.527Z,5.03
2022-09-22T04:06:54.517Z,3.87
2022-09-22T04:09:22.527Z,6.07
2022-09-22T04:11:52.140Z,4.77
2022-09-22T04:14:20.107Z,4.83
2022-09-22T04:16:48.085Z,6.07
2022-09-22T04:19:17.027Z,5.27
2022-09-22T04:21:45.387Z,4.23
2022-09-22T04:24:13.397Z,4.70
2022-09-22T04:26:56.405Z,5.50
2022-09-22T04:29:30.918Z,4.97
2022-09-22T04:31:58.907Z,4.60
2022-09-22T04:34:26.908Z,4.73
2022-09-22T04:36:54.911Z,4.47
2022-09-22T04:39:24.028Z,5.73
2022-09-22T04:41:52.444Z,5.10
2022-09-22T04:44:20.404Z,5.63
2022-09-22T04:46:50.589Z,5.90
2022-09-22T04:49:18.928Z,5.40
2022-09-22T04:51:46.917Z,5.77
2022-09-22T04:54:15.087Z,6.13
2022-09-22T04:56:43.135Z,6.43
2022-09-22T04:59:12.003Z,5.77
2022-09-22T05:01:40.214Z,4.67
2022-09-22T05:04:09.616Z,4.47
2022-09-22T05:06:37.627Z,5.60
2022-09-22T05:09:05.921Z,7.43
2022-09-22T05:11:34.409Z,5.47
2022-09-22T05:14:02.788Z,5.80
2022-09-22T05:16:32.422Z,7.07
2022-09-22T05:19:00.548Z,4.80
2022-09-22T05:21:30.138Z,7.67
2022-09-22T05:23:58.364Z,6.53
2022-09-22T05:26:27.207Z,7.03
2022-09-22T05:28:55.418Z,6.73
2022-09-22T05:31:23.435Z,4.70
2022-09-22T05:33:51.490Z,5.33
2022-09-22T05:36:19.397Z,5.03
2022-09-22T05:38:48.727Z,7.63
2022-09-22T05:41:16.677Z,4.43
2022-09-22T05:43:44.647Z,5.30
2022-09-22T05:46:12.612Z,5.23
2022-09-22T05:48:40.658Z,5.93
2022-09-22T05:51:08.567Z,6.13
2022-09-22T05:53:36.538Z,5.10
2022-09-22T05:56:06.190Z,5.17
2022-09-22T05:58:34.767Z,7.63
2022-09-22T06:01:04.525Z,5.60
2022-09-22T06:03:32.580Z,6.80
2022-09-22T06:06:00.508Z,4.73
2022-09-22T06:08:28.487Z,4.67
2022-09-22T06:10:56.407Z,4.50
2022-09-22T06:13:26.383Z,6.17
2022-09-22T06:15:54.323Z,4.77
2022-09-22T06:18:24.798Z,5.33
2022-09-22T06:20:53.137Z,6.23
2022-09-22T06:23:21.139Z,6.27
2022-09-22T06:25:49.077Z,5.80
2022-09-22T06:28:17.217Z,5.40
2022-09-22T06:30:48.560Z,4.50
2022-09-22T06:33:16.527Z,6.87
2022-09-22T06:35:45.475Z,5.47
2022-09-22T06:38:15.487Z,5.60
2022-09-22T06:40:44.002Z,5.50
2022-09-22T06:43:22.713Z,7.20
2022-09-22T06:45:53.197Z,9.77
2022-09-22T06:48:23.895Z,6.37
2022-09-22T06:50:53.647Z,7.23
2022-09-22T06:53:25.777Z,5.87
2022-09-22T06:55:54.961Z,5.83
2022-09-22T06:58:23.420Z,6.13
2022-09-22T07:00:53.892Z,4.30
2022-09-22T07:03:24.501Z,4.13
2022-09-22T07:05:56.581Z,5.23
2022-09-22T07:08:25.570Z,5.23
2022-09-22T07:10:54.907Z,4.07
2022-09-22T07:13:23.027Z,5.17
2022-09-22T07:15:52.578Z,5.50
2022-09-22T07:18:20.608Z,3.60
2022-09-22T07:20:48.526Z,3.77
2022-09-22T07:23:19.197Z,5.07
2022-09-22T07:25:57.209Z,4.43
2022-09-22T07:28:26.056Z,4.80
2022-09-22T07:30:57.449Z,5.03
2022-09-22T07:33:25.406Z,6.30
2022-09-22T07:36:02.058Z,8.03
2022-09-22T07:38:34.060Z,5.30
2022-09-22T07:41:02.329Z,5.17
2022-09-22T07:43:30.329Z,4.97
2022-09-22T07:45:59.667Z,4.80
2022-09-22T07:48:42.687Z,4.30
2022-09-22T07:51:16.520Z,3.77
2022-09-22T07:53:46.251Z,3.80
2022-09-22T07:56:15.539Z,3.60
2022-09-22T07:58:47.007Z,3.73
2022-09-22T08:01:16.407Z,3.97
2022-09-22T08:03:46.487Z,4.10
2022-09-22T08:06:16.238Z,4.67
2022-09-22T08:08:46.359Z,4.73
2022-09-22T08:11:15.735Z,4.23
2022-09-22T08:13:46.337Z,3.80
2022-09-22T08:16:14.507Z,4.00
2022-09-22T08:18:43.890Z,4.07
2022-09-22T08:21:13.415Z,4.20
2022-09-22T08:23:41.877Z,4.80
2022-09-22T08:26:10.376Z,4.77
2022-09-22T08:28:39.144Z,4.73
2022-09-22T08:31:13.014Z,4.03
2022-09-22T08:33:41.340Z,5.10
2022-09-22T08:36:10.757Z,5.10
2022-09-22T08:38:39.067Z,4.60
2022-09-22T08:41:17.658Z,4.67
2022-09-22T08:43:55.551Z,4.73
2022-09-22T08:46:29.027Z,5.03
2022-09-22T08:49:17.915Z,5.07
2022-09-22T08:51:53.906Z,4.50
2022-09-22T08:54:23.368Z,5.10
2022-09-22T08:57:03.498Z,5.50
2022-09-22T08:59:34.237Z,5.47
2022-09-22T09:02:18.967Z,5.90
2022-09-22T09:05:09.007Z,5.57
2022-09-22T09:07:45.907Z,5.50
2022-09-22T09:10:26.925Z,5.10
2022-09-22T09:13:04.125Z,5.30
2022-09-22T09:15:44.255Z,5.27
2022-09-22T09:18:15.406Z,4.57
2022-09-22T09:20:46.683Z,5.07
2022-09-22T09:23:23.221Z,5.07
2022-09-22T09:25:54.487Z,5.40
2022-09-22T09:28:27.690Z,5.07
2022-09-22T09:31:02.501Z,4.97
2022-09-22T09:33:35.247Z,5.03
2022-09-22T09:36:03.648Z,4.90
2022-09-22T09:38:35.607Z,5.27
2022-09-22T09:41:15.058Z,4.83
2022-09-22T09:43:45.812Z,4.70
2022-09-22T09:46:18.582Z,4.47
2022-09-22T09:49:00.338Z,4.53
2022-09-22T09:51:29.797Z,4.23
2022-09-22T09:54:05.599Z,4.10
2022-09-22T09:56:37.109Z,4.40
2022-09-22T09:59:24.153Z,5.17
2022-09-22T10:01:54.130Z,3.70
2022-09-22T10:04:31.447Z,4.30
2022-09-22T10:07:12.975Z,4.20
2022-09-22T10:09:42.590Z,3.50
2022-09-22T10:12:23.643Z,4.30
2022-09-22T10:14:52.777Z,4.27
2022-09-22T10:17:22.244Z,3.37
2022-09-22T10:19:51.200Z,4.43
2022-09-22T10:22:25.867Z,3.40
2022-09-22T10:24:57.938Z,4.10
2022-09-22T10:27:27.219Z,5.07
2022-09-22T10:30:23.747Z,3.23
2022-09-22T10:33:21.857Z,4.40
2022-09-22T10:35:56.191Z,4.27
2022-09-22T10:38:27.182Z,3.13
2022-09-22T10:40:58.606Z,2.90
2022-09-22T10:43:41.717Z,2.80
2022-09-22T10:46:30.307Z,3.10
2022-09-22T10:49:07.532Z,3.10
2022-09-22T10:51:44.141Z,2.87
2022-09-22T10:54:23.577Z,3.67
2022-09-22T10:56:54.737Z,3.57
2022-09-22T10:59:51.528Z,3.40
2022-09-22T11:02:57.358Z,2.90
2022-09-22T11:05:51.475Z,3.03
2022-09-22T11:08:38.335Z,2.50
2022-09-22T11:11:33.635Z,2.77
2022-09-22T11:14:13.987Z,2.30
2022-09-22T11:16:49.977Z,2.20
2022-09-22T11:19:58.912Z,2.50
2022-09-22T11:22:48.954Z,2.50
2022-09-22T11:25:27.210Z,2.27
2022-09-22T11:28:05.647Z,2.00
2022-09-22T11:30:36.980Z,2.40
2022-09-22T11:33:26.157Z,1.80
2022-09-22T11:36:11.095Z,1.63
2022-09-22T11:39:02.828Z,2.27
2022-09-22T11:41:32.797Z,1.83
2022-09-22T11:44:36.473Z,1.90
2022-09-22T11:47:28.449Z,2.10
2022-09-22T11:50:14.252Z,2.43
2022-09-22T11:52:58.411Z,1.70
2022-09-22T11:55:33.192Z,2.33
2022-09-22T11:58:04.796Z,2.03
2022-09-22T12:00:37.047Z,2.33
2022-09-22T12:03:11.350Z,2.30
2022-09-22T12:05:41.736Z,2.83
2022-09-22T12:08:13.268Z,2.20
2022-09-22T12:10:44.726Z,2.23
2022-09-22T12:13:15.497Z,2.17
2022-09-22T12:15:46.862Z,1.73
2022-09-22T12:18:18.266Z,1.87
2022-09-22T12:20:54.886Z,1.77
2022-09-22T12:23:39.310Z,1.60
2022-09-22T12:26:09.400Z,1.73
2022-09-22T12:28:42.527Z,1.73
2022-09-22T12:31:13.228Z,1.80
2022-09-22T12:33:50.496Z,1.90
2022-09-22T12:36:20.196Z,1.50
2022-09-22T12:38:48.182Z,1.70
2022-09-22T12:41:20.307Z,1.43
2022-09-22T12:43:48.928Z,1.90
2022-09-22T12:46:25.267Z,1.93
2022-09-22T12:48:55.117Z,2.00
2022-09-22T12:51:36.116Z,1.90
2022-09-22T12:54:39.147Z,1.10
2022-09-22T12:57:33.037Z,1.23
2022-09-22T13:00:20.806Z,1.50
2022-09-22T13:02:49.986Z,1.10
2022-09-22T13:05:46.375Z,0.90
2022-09-22T13:08:21.257Z,1.30
2022-09-22T13:11:00.200Z,1.17
2022-09-22T13:13:39.986Z,0.97
2022-09-22T13:16:34.649Z,1.27
2022-09-22T13:19:03.306Z,1.13
2022-09-22T13:21:33.517Z,0.70
2022-09-22T13:24:03.914Z,1.07
2022-09-22T13:26:33.566Z,1.57
2022-09-22T13:29:03.747Z,0.73
2022-09-22T13:31:38.247Z,0.97
2022-09-22T13:34:22.922Z,1.00
2022-09-22T13:36:53.837Z,1.27
2022-09-22T13:39:23.928Z,1.20
2022-09-22T13:41:54.690Z,1.13
2022-09-22T13:44:26.226Z,1.17
2022-09-22T13:46:54.407Z,1.50
2022-09-22T13:49:29.197Z,1.30
2022-09-22T13:52:00.977Z,1.20
2022-09-22T13:54:31.837Z,1.60
2022-09-22T13:57:00.137Z,1.10
2022-09-22T13:59:32.127Z,1.27
2022-09-22T14:02:07.433Z,1.30
2022-09-22T14:04:35.975Z,1.50
2022-09-22T14:07:10.038Z,1.33
2022-09-22T14:09:39.859Z,1.20
2022-09-22T14:12:10.414Z,1.13
2022-09-22T14:14:39.878Z,1.10
2022-09-22T14:17:09.648Z,1.30
2022-09-22T14:19:39.909Z,1.07
2022-09-22T14:22:16.797Z,0.90
2022-09-22T14:24:48.750Z,0.90
2022-09-22T14:27:21.577Z,0.83
2022-09-22T14:29:51.297Z,0.97
2022-09-22T14:32:25.497Z,1.40
2022-09-22T14:34:58.519Z,1.40
2022-09-22T14:37:31.878Z,1.70
2022-09-22T14:40:02.015Z,1.37
2022-09-22T14:42:31.447Z,1.53
2022-09-22T14:45:21.202Z,1.50
2022-09-22T14:48:19.322Z,1.47
2022-09-22T14:50:49.500Z,1.50
2022-09-22T14:53:22.302Z,1.57
2022-09-22T14:55:52.661Z,1.30
2022-09-22T14:58:24.000Z,1.60
2022-09-22T15:01:11.846Z,1.60
2022-09-22T15:03:40.749Z,1.67
2022-09-22T15:06:09.999Z,1.40
2022-09-22T15:08:39.508Z,1.50
2022-09-22T15:11:07.719Z,1.53
2022-09-22T15:13:40.791Z,1.60
2022-09-22T15:16:38.800Z,1.27
2022-09-22T15:19:07.934Z,1.57
2022-09-22T15:21:40.814Z,1.43
2022-09-22T15:24:12.312Z,1.97
2022-09-22T15:26:42.027Z,1.50
2022-09-22T15:29:12.316Z,1.73
2022-09-22T15:31:40.590Z,1.80
2022-09-22T15:34:10.068Z,1.50
2022-09-22T15:36:46.019Z,1.70
2022-09-22T15:39:21.568Z,1.47
2022-09-22T15:41:49.989Z,1.40
2022-09-22T15:44:18.337Z,1.83
2022-09-22T15:46:50.688Z,1.70
2022-09-22T15:49:24.729Z,1.63
2022-09-22T15:51:53.118Z,1.90
2022-09-22T15:54:23.741Z,1.43
2022-09-22T15:56:54.042Z,1.53
2022-09-22T15:59:26.971Z,1.97
2022-09-22T16:01:57.467Z,1.90
2022-09-22T16:04:27.631Z,1.90
2022-09-22T16:06:58.809Z,2.00
2022-09-22T16:09:28.781Z,3.63
2022-09-22T16:11:56.885Z,4.53
2022-09-22T16:14:24.975Z,3.20
2022-09-22T16:16:53.098Z,2.20
2022-09-22T16:19:21.458Z,2.60
2022-09-22T16:21:51.367Z,1.97
2022-09-22T16:24:19.606Z,1.83
2022-09-22T16:26:49.206Z,2.00
2022-09-22T16:29:17.247Z,2.40
2022-09-22T16:31:45.298Z,2.60
2022-09-22T16:34:13.475Z,3.63
2022-09-22T16:36:41.930Z,5.70
2022-09-22T16:39:10.280Z,3.10
2022-09-22T16:41:38.577Z,2.50
2022-09-22T16:44:08.047Z,3.00
2022-09-22T16:46:38.012Z,2.93
2022-09-22T16:49:08.430Z,2.47
2022-09-22T16:51:39.538Z,2.20
2022-09-22T16:54:09.048Z,2.60
2022-09-22T16:56:39.112Z,2.30
2022-09-22T16:59:09.077Z,2.83
2022-09-22T17:01:38.453Z,2.97
2022-09-22T17:04:07.823Z,3.03
2022-09-22T17:06:37.837Z,2.90
2022-09-22T17:09:07.109Z,2.80
2022-09-22T17:11:37.546Z,2.50
2022-09-22T17:14:12.166Z,3.63
2022-09-22T17:16:43.094Z,4.00
2022-09-22T17:19:12.869Z,4.77
2022-09-22T17:21:41.346Z,4.40
2022-09-22T17:24:09.947Z,4.13
2022-09-22T17:26:40.836Z,5.00
2022-09-22T17:29:11.010Z,4.20
2022-09-22T17:31:40.115Z,5.50
2022-09-22T17:34:09.942Z,5.00
2022-09-22T17:36:38.025Z,4.90
2022-09-22T17:39:06.895Z,4.43
2022-09-22T17:41:35.416Z,3.60
2022-09-22T17:44:04.670Z,4.03
2022-09-22T17:46:34.662Z,3.23
2022-09-22T17:49:20.435Z,3.77
2022-09-22T17:52:08.015Z,3.73
2022-09-22T17:54:55.193Z,3.73
2022-09-22T17:57:24.701Z,3.87
2022-09-22T17:59:54.441Z,4.17
2022-09-22T18:02:22.560Z,3.97
2022-09-22T18:04:50.759Z,3.57
2022-09-22T18:07:21.308Z,3.97
2022-09-22T18:09:50.827Z,3.83
2022-09-22T18:12:21.759Z,4.40
2022-09-22T18:14:52.276Z,4.97
2022-09-22T18:17:21.805Z,4.17
2022-09-22T18:19:49.903Z,5.03
2022-09-22T18:22:21.309Z,5.77
2022-09-22T18:24:50.721Z,7.63
2022-09-22T18:27:19.648Z,6.50
2022-09-22T18:29:50.142Z,9.93
2022-09-22T18:32:19.812Z,10.20
2022-09-22T18:34:51.339Z,9.87
2022-09-22T18:37:21.037Z,10.27
2022-09-22T18:39:50.885Z,10.37
2022-09-22T18:42:19.335Z,9.93
2022-09-22T18:44:48.399Z,10.10
2022-09-22T18:47:18.664Z,8.73
2022-09-22T18:49:48.376Z,7.80
2022-09-22T18:52:18.327Z,8.17
2022-09-22T18:54:47.947Z,8.10
2022-09-22T18:57:16.029Z,8.37
2022-09-22T18:59:44.460Z,7.60
2022-09-22T19:02:13.118Z,9.27
2022-09-22T19:04:41.679Z,8.23
2022-09-22T19:07:27.647Z,8.57
2022-09-22T19:09:57.173Z,8.80
2022-09-22T19:12:25.313Z,7.97
2022-09-22T19:14:54.672Z,8.20
2022-09-22T19:17:24.539Z,7.20
2022-09-22T19:19:52.869Z,7.83
2022-09-22T19:22:23.383Z,7.47
2022-09-22T19:24:52.691Z,7.43
2022-09-22T19:27:22.862Z,7.37
2022-09-22T19:29:52.056Z,7.40
2022-09-22T19:32:20.099Z,6.90
2022-09-22T19:34:51.713Z,6.77
2022-09-22T19:37:19.797Z,7.67
2022-09-22T19:39:50.030Z,7.80
2022-09-22T19:42:19.090Z,7.53
2022-09-22T19:44:48.651Z,7.70
2022-09-22T19:47:17.166Z,7.90
2022-09-22T19:49:45.268Z,7.27
2022-09-22T19:52:13.538Z,7.93
2022-09-22T19:54:41.597Z,8.87
2022-09-22T19:57:09.667Z,8.90
2022-09-22T19:59:37.799Z,8.80
2022-09-22T20:02:12.787Z,7.77
2022-09-22T20:04:40.919Z,7.73
2022-09-22T20:07:11.010Z,7.60
2022-09-22T20:09:39.198Z,7.17
2022-09-22T20:12:07.758Z,7.03
2022-09-22T20:14:35.883Z,8.23
2022-09-22T20:17:07.237Z,8.93
2022-09-22T20:19:38.499Z,15.23
2022-09-22T20:22:25.563Z,16.27
2022-09-22T20:24:55.829Z,16.20
2022-09-22T20:27:25.980Z,14.40
2022-09-22T20:29:57.262Z,14.10
2022-09-22T20:32:28.762Z,12.97
2022-09-22T20:34:57.813Z,12.20
2022-09-22T20:37:26.143Z,12.07
2022-09-22T20:39:54.566Z,15.63
2022-09-22T20:42:23.897Z,15.97
2022-09-22T20:44:52.113Z,13.07
2022-09-22T20:47:22.040Z,13.13
2022-09-22T20:49:52.074Z,13.93
2022-09-22T20:52:21.127Z,13.97
2022-09-22T20:54:49.602Z,11.87
2022-09-22T20:57:17.680Z,12.27
2022-09-22T20:59:46.189Z,12.47
2022-09-22T21:02:15.028Z,11.93
2022-09-22T21:04:43.737Z,12.27
2022-09-22T21:07:13.159Z,13.53
2022-09-22T21:09:59.009Z,12.07
2022-09-22T21:12:30.926Z,12.67
2022-09-22T21:14:59.549Z,11.73
2022-09-22T21:17:29.913Z,11.83
2022-09-22T21:19:58.401Z,12.33
2022-09-22T21:22:28.413Z,12.30
2022-09-22T21:24:56.613Z,11.90
2022-09-22T21:27:25.232Z,12.83
2022-09-22T21:29:53.352Z,12.47
2022-09-22T21:32:21.419Z,13.97
2022-09-22T21:34:49.532Z,12.53
2022-09-22T21:37:17.531Z,12.67
2022-09-22T21:39:47.019Z,12.00
2022-09-22T21:42:15.059Z,11.77
2022-09-22T21:44:43.341Z,10.60
2022-09-22T21:47:11.762Z,11.43
2022-09-22T21:49:39.926Z,10.13
2022-09-22T21:52:07.988Z,9.73
2022-09-22T21:54:36.090Z,10.30
2022-09-22T21:57:05.696Z,9.47
2022-09-22T21:59:33.818Z,10.03
2022-09-22T22:02:01.897Z,11.37
2022-09-22T22:04:30.150Z,10.73
2022-09-22T22:06:58.281Z,11.27
2022-09-22T22:09:26.601Z,13.07
2022-09-22T22:11:56.648Z,12.33
2022-09-22T22:14:28.286Z,11.57
2022-09-22T22:16:56.606Z,11.17
2022-09-22T22:19:27.204Z,11.47
2022-09-22T22:21:55.787Z,11.23
2022-09-22T22:24:29.204Z,11.50
2022-09-22T22:27:01.453Z,12.30
2022-09-22T22:29:32.117Z,10.73
2022-09-22T22:32:00.526Z,10.40
2022-09-22T22:34:28.811Z,10.30
2022-09-22T22:36:58.626Z,10.27
2022-09-22T22:39:26.839Z,10.40
2022-09-22T22:41:55.748Z,10.10
2022-09-22T22:44:24.807Z,10.30
2022-09-22T22:46:54.230Z,10.40
2022-09-22T22:49:22.308Z,9.60
2022-09-22T22:51:52.508Z,12.57
2022-09-22T22:54:20.588Z,15.70
2022-09-22T22:56:51.234Z,12.40
2022-09-22T22:59:20.326Z,11.07
2022-09-22T23:01:48.498Z,9.63
2022-09-22T23:04:17.960Z,9.73
2022-09-22T23:06:47.538Z,9.43
2022-09-22T23:09:17.271Z,9.20
2022-09-22T23:11:46.758Z,8.97
2022-09-22T23:14:16.254Z,8.80
2022-09-22T23:16:46.386Z,8.53
2022-09-22T23:19:18.590Z,8.73
2022-09-22T23:21:47.411Z,8.27
2022-09-22T23:24:16.846Z,8.67
2022-09-22T23:26:45.354Z,8.13
2022-09-22T23:29:13.658Z,8.97
2022-09-22T23:31:41.767Z,9.67
2022-09-22T23:34:09.846Z,8.20
2022-09-22T23:36:39.746Z,9.03
2022-09-22T23:39:08.051Z,9.03
2022-09-22T23:41:37.979Z,8.93
2022-09-22T23:44:06.949Z,7.83
2022-09-22T23:46:35.609Z,8.97
2022-09-22T23:49:03.711Z,9.33
2022-09-22T23:51:31.818Z,7.90
2022-09-22T23:54:01.285Z,7.70
2022-09-22T23:56:29.538Z,7.70
2022-09-22T23:58:58.030Z,7.87
